sensor_id;sensor_type;location;lat;lon;timestamp;pressure;altitude;pressure_sealevel;temperature;humidity
7058;BME280;3570;43.080;25.628;2023-07-09T00:01:45;-19994.25;;;18.61;100.00
7058;BME280;3570;43.080;25.628;2023-07-09T00:04:29;-20004.13;;;18.95;100.00
7058;BME280;3570;43.080;25.628;2023-07-09T00:07:26;-20015.44;;;19.34;100.00
7058;BME280;3570;43.080;25.628;2023-07-09T00:10:19;-20014.84;;;19.32;100.00
7058;BME280;3570;43.080;25.628;2023-07-09T00:13:04;-20020.09;;;19.50;100.00
7058;BME280;3570;43.080;25.628;2023-07-09T00:15:49;-20022.13;;;19.57;100.00
7058;BME280;3570;43.080;25.628;2023-07-09T00:18:33;-20019.78;;;19.49;100.00
7058;BME280;3570;43.080;25.628;2023-07-09T00:21:21;-20029.66;;;19.84;100.00
7058;BME280;3570;43.080;25.628;2023-07-09T00:24:05;-20032.13;;;19.92;100.00
7058;BME280;3570;43.080;25.628;2023-07-09T00:26:49;-20022.97;;;19.60;100.00
7058;BME280;3570;43.080;25.628;2023-07-09T00:29:34;-20019.78;;;19.49;100.00
7058;BME280;3570;43.080;25.628;2023-07-09T00:32:19;-20026.75;;;19.74;100.00
7058;BME280;3570;43.080;25.628;2023-07-09T00:35:09;-20022.84;;;19.60;100.00
7058;BME280;3570;43.080;25.628;2023-07-09T00:37:52;-20031.09;;;19.89;100.00
7058;BME280;3570;43.080;25.628;2023-07-09T00:40:36;-20033.84;;;19.98;100.00
7058;BME280;3570;43.080;25.628;2023-07-09T00:43:20;-20029.38;;;19.83;100.00
7058;BME280;3570;43.080;25.628;2023-07-09T00:49:07;-20012.09;;;19.23;100.00
7058;BME280;3570;43.080;25.628;2023-07-09T00:51:53;-20023.41;;;19.62;100.00
7058;BME280;3570;43.080;25.628;2023-07-09T00:54:40;-20025.75;;;19.70;100.00
7058;BME280;3570;43.080;25.628;2023-07-09T00:57:26;-20030.09;;;19.85;100.00
7058;BME280;3570;43.080;25.628;2023-07-09T01:00:13;-20030.22;;;19.86;100.00
7058;BME280;3570;43.080;25.628;2023-07-09T01:02:58;-20027.34;;;19.76;100.00
7058;BME280;3570;43.080;25.628;2023-07-09T01:05:42;-20019.06;;;19.47;100.00
7058;BME280;3570;43.080;25.628;2023-07-09T01:08:29;-20030.22;;;19.86;100.00
7058;BME280;3570;43.080;25.628;2023-07-09T01:11:20;-20033.28;;;19.96;100.00
7058;BME280;3570;43.080;25.628;2023-07-09T01:14:07;-20036.16;;;20.06;100.00
7058;BME280;3570;43.080;25.628;2023-07-09T01:17:04;-20022.69;;;19.59;100.00
7058;BME280;3570;43.080;25.628;2023-07-09T01:19:50;-20020.09;;;19.50;100.00
7058;BME280;3570;43.080;25.628;2023-07-09T01:22:34;-20019.94;;;19.50;100.00
7058;BME280;3570;43.080;25.628;2023-07-09T01:25:20;-20007.16;;;19.06;100.00
7058;BME280;3570;43.080;25.628;2023-07-09T01:28:04;-20002.38;;;18.89;100.00
7058;BME280;3570;43.080;25.628;2023-07-09T01:30:48;-20009.78;;;19.15;100.00
7058;BME280;3570;43.080;25.628;2023-07-09T01:33:38;-20013.25;;;19.27;100.00
7058;BME280;3570;43.080;25.628;2023-07-09T01:36:23;-19996.28;;;18.68;100.00
7058;BME280;3570;43.080;25.628;2023-07-09T01:39:08;-20019.22;;;19.47;100.00
7058;BME280;3570;43.080;25.628;2023-07-09T01:41:51;-20012.53;;;19.24;100.00
7058;BME280;3570;43.080;25.628;2023-07-09T01:44:36;-20022.41;;;19.58;100.00
7058;BME280;3570;43.080;25.628;2023-07-09T01:47:22;-20019.66;;;19.49;100.00
7058;BME280;3570;43.080;25.628;2023-07-09T01:50:08;-20020.22;;;19.51;100.00
7058;BME280;3570;43.080;25.628;2023-07-09T01:52:54;-20029.94;;;19.85;100.00
7058;BME280;3570;43.080;25.628;2023-07-09T01:55:39;-20030.22;;;19.86;100.00
7058;BME280;3570;43.080;25.628;2023-07-09T01:58:23;-20028.78;;;19.81;100.00
7058;BME280;3570;43.080;25.628;2023-07-09T02:01:09;-20030.22;;;19.86;100.00
7058;BME280;3570;43.080;25.628;2023-07-09T02:03:53;-20030.22;;;19.86;100.00
7058;BME280;3570;43.080;25.628;2023-07-09T02:06:37;-20026.03;;;19.71;100.00
7058;BME280;3570;43.080;25.628;2023-07-09T02:09:21;-20026.59;;;19.73;100.00
7058;BME280;3570;43.080;25.628;2023-07-09T02:12:05;-20015.88;;;19.36;100.00
7058;BME280;3570;43.080;25.628;2023-07-09T02:14:50;-20022.97;;;19.60;100.00
7058;BME280;3570;43.080;25.628;2023-07-09T02:17:34;-20024.72;;;19.66;100.00
7058;BME280;3570;43.080;25.628;2023-07-09T02:20:18;-20024.88;;;19.67;100.00
7058;BME280;3570;43.080;25.628;2023-07-09T02:23:02;-20026.03;;;19.71;100.00
7058;BME280;3570;43.080;25.628;2023-07-09T02:25:47;-20016.03;;;19.36;100.00
7058;BME280;3570;43.080;25.628;2023-07-09T02:28:31;-20020.22;;;19.51;100.00
7058;BME280;3570;43.080;25.628;2023-07-09T02:31:14;-20018.91;;;19.46;100.00
7058;BME280;3570;43.080;25.628;2023-07-09T02:34:00;-20013.97;;;19.29;100.00
7058;BME280;3570;43.080;25.628;2023-07-09T02:36:44;-20009.19;;;19.13;100.00
7058;BME280;3570;43.080;25.628;2023-07-09T02:39:29;-20008.19;;;19.09;100.00
7058;BME280;3570;43.080;25.628;2023-07-09T02:42:14;-20012.09;;;19.23;100.00
7058;BME280;3570;43.080;25.628;2023-07-09T02:44:59;-20010.38;;;19.17;100.00
7058;BME280;3570;43.080;25.628;2023-07-09T02:47:43;-20008.63;;;19.11;100.00
7058;BME280;3570;43.080;25.628;2023-07-09T02:50:27;-19989.91;;;18.46;100.00
7058;BME280;3570;43.080;25.628;2023-07-09T02:53:11;-19989.16;;;18.43;100.00
7058;BME280;3570;43.080;25.628;2023-07-09T02:55:55;-19972.31;;;17.85;100.00
7058;BME280;3570;43.080;25.628;2023-07-09T02:58:39;-19970.88;;;17.80;100.00
7058;BME280;3570;43.080;25.628;2023-07-09T03:01:23;-19969.13;;;17.74;100.00
7058;BME280;3570;43.080;25.628;2023-07-09T03:04:11;-19977.13;;;18.02;100.00
7058;BME280;3570;43.080;25.628;2023-07-09T03:06:55;-19976.53;;;18.00;100.00
7058;BME280;3570;43.080;25.628;2023-07-09T03:09:39;-19983.38;;;18.23;100.00
7058;BME280;3570;43.080;25.628;2023-07-09T03:12:23;-19981.91;;;18.18;100.00
7058;BME280;3570;43.080;25.628;2023-07-09T03:15:07;-19976.69;;;18.00;100.00
7058;BME280;3570;43.080;25.628;2023-07-09T03:17:51;-19982.06;;;18.19;100.00
7058;BME280;3570;43.080;25.628;2023-07-09T03:20:35;-19975.22;;;17.95;100.00
7058;BME280;3570;43.080;25.628;2023-07-09T03:23:19;-19974.38;;;17.92;100.00
7058;BME280;3570;43.080;25.628;2023-07-09T03:26:03;-19981.19;;;18.16;100.00
7058;BME280;3570;43.080;25.628;2023-07-09T03:28:48;-19966.81;;;17.66;100.00
7058;BME280;3570;43.080;25.628;2023-07-09T03:31:32;-19986.41;;;18.34;100.00
7058;BME280;3570;43.080;25.628;2023-07-09T03:34:18;-19980.91;;;18.15;100.00
7058;BME280;3570;43.080;25.628;2023-07-09T03:37:03;-19994.41;;;18.61;100.00
7058;BME280;3570;43.080;25.628;2023-07-09T03:39:47;-20005.56;;;19.00;100.00
7058;BME280;3570;43.080;25.628;2023-07-09T03:42:31;-20011.09;;;19.19;100.00
7058;BME280;3570;43.080;25.628;2023-07-09T03:45:15;-20017.31;;;19.41;100.00
7058;BME280;3570;43.080;25.628;2023-07-09T03:47:59;-20020.38;;;19.51;100.00
7058;BME280;3570;43.080;25.628;2023-07-09T03:50:44;-20012.53;;;19.24;100.00
7058;BME280;3570;43.080;25.628;2023-07-09T03:53:28;-20027.03;;;19.75;100.00
7058;BME280;3570;43.080;25.628;2023-07-09T03:56:13;-20027.91;;;19.78;100.00
7058;BME280;3570;43.080;25.628;2023-07-09T03:58:57;-20024.44;;;19.65;100.00
7058;BME280;3570;43.080;25.628;2023-07-09T04:01:41;-20018.78;;;19.46;100.00
7058;BME280;3570;43.080;25.628;2023-07-09T04:04:28;-20019.78;;;19.49;100.00
7058;BME280;3570;43.080;25.628;2023-07-09T04:07:12;-20004.56;;;18.97;100.00
7058;BME280;3570;43.080;25.628;2023-07-09T04:09:56;-20016.31;;;19.37;100.00
7058;BME280;3570;43.080;25.628;2023-07-09T04:12:40;-20020.09;;;19.50;100.00
7058;BME280;3570;43.080;25.628;2023-07-09T04:15:25;-20022.53;;;19.59;100.00
7058;BME280;3570;43.080;25.628;2023-07-09T04:18:09;-20013.84;;;19.29;100.00
7058;BME280;3570;43.080;25.628;2023-07-09T04:20:53;-20020.09;;;19.50;100.00
7058;BME280;3570;43.080;25.628;2023-07-09T04:23:37;-20016.59;;;19.38;100.00
7058;BME280;3570;43.080;25.628;2023-07-09T04:26:20;-20035.75;;;20.05;100.00
7058;BME280;3570;43.080;25.628;2023-07-09T04:29:07;-20039.66;;;20.18;100.00
7058;BME280;3570;43.080;25.628;2023-07-09T04:31:51;-20041.41;;;20.24;100.00
7058;BME280;3570;43.080;25.628;2023-07-09T04:34:35;-20042.84;;;20.29;100.00
7058;BME280;3570;43.080;25.628;2023-07-09T04:37:19;-20040.38;;;20.21;100.00
7058;BME280;3570;43.080;25.628;2023-07-09T04:40:03;-20021.69;;;19.56;100.00
7058;BME280;3570;43.080;25.628;2023-07-09T04:42:50;-20014.84;;;19.32;100.00
7058;BME280;3570;43.080;25.628;2023-07-09T04:45:34;-20008.63;;;19.11;100.00
7058;BME280;3570;43.080;25.628;2023-07-09T04:48:19;-19995.41;;;18.65;100.00
7058;BME280;3570;43.080;25.628;2023-07-09T04:51:03;-20000.34;;;18.82;100.00
7058;BME280;3570;43.080;25.628;2023-07-09T04:53:47;-20010.78;;;19.18;100.00
7058;BME280;3570;43.080;25.628;2023-07-09T04:56:30;-20024.72;;;19.66;100.00
7058;BME280;3570;43.080;25.628;2023-07-09T04:59:15;-20039.38;;;20.17;100.00
7058;BME280;3570;43.080;25.628;2023-07-09T05:01:59;-20042.13;;;20.27;100.00
7058;BME280;3570;43.080;25.628;2023-07-09T05:04:43;-20056.19;;;20.76;100.00
7058;BME280;3570;43.080;25.628;2023-07-09T05:07:27;-20060.09;;;20.89;100.00
7058;BME280;3570;43.080;25.628;2023-07-09T05:10:11;-20054.88;;;20.71;100.00
7058;BME280;3570;43.080;25.628;2023-07-09T05:12:55;-20060.38;;;20.90;100.00
7058;BME280;3570;43.080;25.628;2023-07-09T05:15:43;-20044.31;;;20.34;100.00
7058;BME280;3570;43.080;25.628;2023-07-09T05:18:28;-20049.94;;;20.54;100.00
7058;BME280;3570;43.080;25.628;2023-07-09T05:21:12;-20050.38;;;20.55;100.00
7058;BME280;3570;43.080;25.628;2023-07-09T05:23:56;-20051.84;;;20.60;100.00
7058;BME280;3570;43.080;25.628;2023-07-09T05:26:40;-20053.72;;;20.67;100.00
7058;BME280;3570;43.080;25.628;2023-07-09T05:29:24;-20056.19;;;20.76;100.00
7058;BME280;3570;43.080;25.628;2023-07-09T05:32:08;-20055.16;;;20.72;100.00
7058;BME280;3570;43.080;25.628;2023-07-09T05:34:52;-20050.97;;;20.57;100.00
7058;BME280;3570;43.080;25.628;2023-07-09T05:37:36;-20050.66;;;20.56;100.00
7058;BME280;3570;43.080;25.628;2023-07-09T05:40:21;-20050.38;;;20.55;100.00
7058;BME280;3570;43.080;25.628;2023-07-09T05:43:05;-20052.56;;;20.63;100.00
7058;BME280;3570;43.080;25.628;2023-07-09T05:45:49;-20057.47;;;20.80;100.00
7058;BME280;3570;43.080;25.628;2023-07-09T05:48:33;-20060.09;;;20.89;100.00
7058;BME280;3570;43.080;25.628;2023-07-09T05:51:18;-20070.22;;;21.24;100.00
7058;BME280;3570;43.080;25.628;2023-07-09T05:54:02;-20073.41;;;21.35;100.00
7058;BME280;3570;43.080;25.628;2023-07-09T05:56:46;-20074.56;;;21.39;100.00
7058;BME280;3570;43.080;25.628;2023-07-09T05:59:30;-20085.56;;;21.78;100.00
7058;BME280;3570;43.080;25.628;2023-07-09T06:02:17;-20081.22;;;21.63;100.00
7058;BME280;3570;43.080;25.628;2023-07-09T06:05:01;-20083.25;;;21.70;100.00
7058;BME280;3570;43.080;25.628;2023-07-09T06:07:45;-20087.91;;;21.86;100.00
7058;BME280;3570;43.080;25.628;2023-07-09T06:10:29;-20092.97;;;22.03;100.00
7058;BME280;3570;43.080;25.628;2023-07-09T06:13:14;-20097.00;;;22.17;100.00
7058;BME280;3570;43.080;25.628;2023-07-09T06:15:59;-20096.88;;;22.17;100.00
7058;BME280;3570;43.080;25.628;2023-07-09T06:18:43;-20089.19;;;21.90;100.00
7058;BME280;3570;43.080;25.628;2023-07-09T06:21:27;-20098.88;;;22.24;100.00
7058;BME280;3570;43.080;25.628;2023-07-09T06:24:11;-20101.78;;;22.34;100.00
7058;BME280;3570;43.080;25.628;2023-07-09T06:26:55;-20107.00;;;22.52;100.00
7058;BME280;3570;43.080;25.628;2023-07-09T06:29:39;-20113.22;;;22.74;100.00
7058;BME280;3570;43.080;25.628;2023-07-09T06:32:23;-20101.34;;;22.32;100.00
7058;BME280;3570;43.080;25.628;2023-07-09T06:35:07;-20105.13;;;22.45;100.00
7058;BME280;3570;43.080;25.628;2023-07-09T06:37:51;-20099.47;;;22.26;100.00
7058;BME280;3570;43.080;25.628;2023-07-09T06:40:35;-20104.97;;;22.45;100.00
7058;BME280;3570;43.080;25.628;2023-07-09T06:43:20;-20089.63;;;21.92;100.00
7058;BME280;3570;43.080;25.628;2023-07-09T06:46:05;-20092.53;;;22.02;100.00
7058;BME280;3570;43.080;25.628;2023-07-09T06:48:50;-20101.34;;;22.32;100.00
7058;BME280;3570;43.080;25.628;2023-07-09T06:51:34;-20110.75;;;22.65;100.00
7058;BME280;3570;43.080;25.628;2023-07-09T06:54:18;-20119.56;;;22.96;100.00
7058;BME280;3570;43.080;25.628;2023-07-09T06:57:02;-20127.53;;;23.23;100.00
7058;BME280;3570;43.080;25.628;2023-07-09T06:59:46;-20128.97;;;23.28;100.00
7058;BME280;3570;43.080;25.628;2023-07-09T07:02:31;-20139.97;;;23.67;100.00
7058;BME280;3570;43.080;25.628;2023-07-09T07:05:15;-20131.16;;;23.36;100.00
7058;BME280;3570;43.080;25.628;2023-07-09T07:08:01;-20125.94;;;23.18;100.00
7058;BME280;3570;43.080;25.628;2023-07-09T07:10:48;-20100.78;;;22.30;100.00
7058;BME280;3570;43.080;25.628;2023-07-09T07:13:35;-20117.13;;;22.87;100.00
7058;BME280;3570;43.080;25.628;2023-07-09T07:16:20;-20122.75;;;23.07;100.00
7058;BME280;3570;43.080;25.628;2023-07-09T07:19:04;-20129.13;;;23.29;100.00
7058;BME280;3570;43.080;25.628;2023-07-09T07:21:49;-20135.47;;;23.51;100.00
7058;BME280;3570;43.080;25.628;2023-07-09T07:24:33;-20133.88;;;23.46;100.00
7058;BME280;3570;43.080;25.628;2023-07-09T07:27:17;-20128.09;;;23.25;96.39
7058;BME280;3570;43.080;25.628;2023-07-09T07:30:01;-20120.88;;;23.00;100.00
7058;BME280;3570;43.080;25.628;2023-07-09T07:32:47;-20136.22;;;23.54;100.00
7058;BME280;3570;43.080;25.628;2023-07-09T07:35:32;-20145.75;;;23.87;100.00
7058;BME280;3570;43.080;25.628;2023-07-09T07:38:17;-20157.28;;;24.27;100.00
7058;BME280;3570;43.080;25.628;2023-07-09T07:41:01;-20149.78;;;24.01;97.04
7058;BME280;3570;43.080;25.628;2023-07-09T07:43:46;-20155.56;;;24.21;98.87
7058;BME280;3570;43.080;25.628;2023-07-09T07:46:30;-20145.75;;;23.87;96.79
7058;BME280;3570;43.080;25.628;2023-07-09T07:49:16;-20150.38;;;24.03;96.67
7058;BME280;3570;43.080;25.628;2023-07-09T07:52:00;-20167.69;;;24.63;96.42
7058;BME280;3570;43.080;25.628;2023-07-09T07:54:47;-20174.91;;;24.88;91.10
7058;BME280;3570;43.080;25.628;2023-07-09T07:57:31;-20187.75;;;25.33;83.91
7058;BME280;3570;43.080;25.628;2023-07-09T08:00:16;-20198.56;;;25.71;85.02
7058;BME280;3570;43.080;25.628;2023-07-09T08:03:00;-20202.63;;;25.85;83.30
7058;BME280;3570;43.080;25.628;2023-07-09T08:05:50;-20209.09;;;26.08;78.19
7058;BME280;3570;43.080;25.628;2023-07-09T08:08:34;-20198.72;;;25.71;69.70
7058;BME280;3570;43.080;25.628;2023-07-09T08:11:18;-20217.59;;;26.37;71.27
7058;BME280;3570;43.080;25.628;2023-07-09T08:14:02;-20221.63;;;26.51;71.65
7058;BME280;3570;43.080;25.628;2023-07-09T08:16:47;-20218.31;;;26.40;59.10
7058;BME280;3570;43.080;25.628;2023-07-09T08:19:32;-20186.16;;;25.28;63.73
7058;BME280;3570;43.080;25.628;2023-07-09T08:22:16;-20181.69;;;25.12;61.42
7058;BME280;3570;43.080;25.628;2023-07-09T08:25:00;-20185.59;;;25.26;65.83
7058;BME280;3570;43.080;25.628;2023-07-09T08:27:44;-20194.69;;;25.57;65.96
7058;BME280;3570;43.080;25.628;2023-07-09T08:30:29;-20187.59;;;25.33;64.14
7058;BME280;3570;43.080;25.628;2023-07-09T08:33:12;-20202.31;;;25.84;58.37
7058;BME280;3570;43.080;25.628;2023-07-09T08:35:57;-20202.19;;;25.83;58.17
7058;BME280;3570;43.080;25.628;2023-07-09T08:38:41;-20198.56;;;25.71;62.79
7058;BME280;3570;43.080;25.628;2023-07-09T08:41:42;-20193.97;;;25.55;61.33
7058;BME280;3570;43.080;25.628;2023-07-09T08:48:04;-20210.69;;;26.13;59.23
7058;BME280;3570;43.080;25.628;2023-07-09T08:50:55;-20224.38;;;26.61;67.73
7058;BME280;3570;43.080;25.628;2023-07-09T08:53:53;-20223.06;;;26.56;64.38
7058;BME280;3570;43.080;25.628;2023-07-09T08:56:39;-20202.63;;;25.85;62.00
7058;BME280;3570;43.080;25.628;2023-07-09T08:59:24;-20194.25;;;25.56;66.73
7058;BME280;3570;43.080;25.628;2023-07-09T09:02:22;-20208.97;;;26.07;72.52
7058;BME280;3570;43.080;25.628;2023-07-09T09:05:14;-20231.16;;;26.84;62.77
7058;BME280;3570;43.080;25.628;2023-07-09T09:11:24;-20244.53;;;27.31;59.90
7058;BME280;3570;43.080;25.628;2023-07-09T09:14:35;-20249.88;;;27.50;62.08
7058;BME280;3570;43.080;25.628;2023-07-09T09:17:20;-20234.91;;;26.97;60.35
7058;BME280;3570;43.080;25.628;2023-07-09T09:20:16;-20254.34;;;27.65;58.93
7058;BME280;3570;43.080;25.628;2023-07-09T09:25:52;-20234.59;;;26.96;62.31
7058;BME280;3570;43.080;25.628;2023-07-09T09:28:38;-20258.66;;;27.80;63.48
7058;BME280;3570;43.080;25.628;2023-07-09T09:31:24;-20290.59;;;28.92;59.73
7058;BME280;3570;43.080;25.628;2023-07-09T09:34:26;-20328.50;;;30.25;54.44
7058;BME280;3570;43.080;25.628;2023-07-09T09:37:11;-20363.66;;;31.48;50.50
7058;BME280;3570;43.080;25.628;2023-07-09T09:39:56;-20384.44;;;32.21;48.22
7058;BME280;3570;43.080;25.628;2023-07-09T09:42:40;-20403.19;;;32.87;42.71
7058;BME280;3570;43.080;25.628;2023-07-09T09:45:32;-20428.81;;;33.77;42.71
7058;BME280;3570;43.080;25.628;2023-07-09T09:48:26;-20424.50;;;33.62;44.58
7058;BME280;3570;43.080;25.628;2023-07-09T09:51:11;-20428.94;;;33.77;41.74
7058;BME280;3570;43.080;25.628;2023-07-09T09:54:02;-20400.47;;;32.77;42.21
7058;BME280;3570;43.080;25.628;2023-07-09T09:56:48;-20406.63;;;32.99;40.77
7058;BME280;3570;43.080;25.628;2023-07-09T09:59:36;-20350.47;;;31.02;41.87
7058;BME280;3570;43.080;25.628;2023-07-09T10:02:24;-20374.41;;;31.86;46.44
7058;BME280;3570;43.080;25.628;2023-07-09T10:05:15;-20421.22;;;33.50;43.66
7058;BME280;3570;43.080;25.628;2023-07-09T10:08:17;-20435.81;;;34.01;41.69
7058;BME280;3570;43.080;25.628;2023-07-09T10:11:12;-20433.25;;;33.92;40.88
7058;BME280;3570;43.080;25.628;2023-07-09T10:14:09;-20469.53;;;35.20;40.16
7058;BME280;3570;43.080;25.628;2023-07-09T10:17:08;-20471.09;;;35.26;38.73
7058;BME280;3570;43.080;25.628;2023-07-09T10:19:59;-20410.63;;;33.13;40.18
7058;BME280;3570;43.080;25.628;2023-07-09T10:25:45;-20426.81;;;33.70;38.79
7058;BME280;3570;43.080;25.628;2023-07-09T10:28:35;-20439.25;;;34.13;38.78
7058;BME280;3570;43.080;25.628;2023-07-09T10:31:41;-20420.50;;;33.48;37.63
7058;BME280;3570;43.080;25.628;2023-07-09T10:35:14;-20388.31;;;32.34;40.75
7058;BME280;3570;43.080;25.628;2023-07-09T10:40:48;-20402.19;;;32.83;40.84
7058;BME280;3570;43.080;25.628;2023-07-09T10:46:31;-20439.25;;;34.13;38.19
7058;BME280;3570;43.080;25.628;2023-07-09T10:49:17;-20414.22;;;33.25;41.83
7058;BME280;3570;43.080;25.628;2023-07-09T10:52:06;-20402.78;;;32.85;40.59
7058;BME280;3570;43.080;25.628;2023-07-09T10:57:52;-20396.91;;;32.65;40.28
7058;BME280;3570;43.080;25.628;2023-07-09T11:00:39;-20429.66;;;33.80;37.41
7058;BME280;3570;43.080;25.628;2023-07-09T11:06:23;-20434.97;;;33.98;39.14
7058;BME280;3570;43.080;25.628;2023-07-09T11:09:27;-20418.66;;;33.41;37.54
7058;BME280;3570;43.080;25.628;2023-07-09T11:12:34;-20394.31;;;32.56;39.73
7058;BME280;3570;43.080;25.628;2023-07-09T11:15:31;-20402.91;;;32.86;38.00
7058;BME280;3570;43.080;25.628;2023-07-09T11:18:26;-20419.22;;;33.43;40.65
7058;BME280;3570;43.080;25.628;2023-07-09T11:21:17;-20389.16;;;32.37;38.36
7058;BME280;3570;43.080;25.628;2023-07-09T11:24:01;-20373.97;;;31.84;36.51
7058;BME280;3570;43.080;25.628;2023-07-09T11:26:48;-20401.47;;;32.81;36.27
7058;BME280;3570;43.080;25.628;2023-07-09T11:29:32;-20445.53;;;34.36;34.20
7058;BME280;3570;43.080;25.628;2023-07-09T11:32:20;-20417.22;;;33.36;35.62
7058;BME280;3570;43.080;25.628;2023-07-09T11:35:07;-20384.56;;;32.21;35.34
7058;BME280;3570;43.080;25.628;2023-07-09T11:37:51;-20363.66;;;31.48;36.88
7058;BME280;3570;43.080;25.628;2023-07-09T11:40:46;-20354.47;;;31.16;37.91
7058;BME280;3570;43.080;25.628;2023-07-09T11:43:34;-20391.88;;;32.47;38.11
7058;BME280;3570;43.080;25.628;2023-07-09T11:46:23;-20444.09;;;34.31;33.22
7058;BME280;3570;43.080;25.628;2023-07-09T11:49:11;-20411.22;;;33.15;34.71
7058;BME280;3570;43.080;25.628;2023-07-09T11:51:59;-20381.84;;;32.12;35.60
7058;BME280;3570;43.080;25.628;2023-07-09T11:54:45;-20364.66;;;31.52;36.86
7058;BME280;3570;43.080;25.628;2023-07-09T11:57:30;-20354.06;;;31.14;36.74
7058;BME280;3570;43.080;25.628;2023-07-09T12:00:15;-20373.97;;;31.84;36.02
7058;BME280;3570;43.080;25.628;2023-07-09T12:02:59;-20384.00;;;32.19;36.41
7058;BME280;3570;43.080;25.628;2023-07-09T12:05:53;-20456.38;;;34.74;32.80
7058;BME280;3570;43.080;25.628;2023-07-09T12:08:40;-20462.69;;;34.96;30.52
7058;BME280;3570;43.080;25.628;2023-07-09T12:11:30;-20423.50;;;33.58;32.87
7058;BME280;3570;43.080;25.628;2023-07-09T12:14:18;-20418.78;;;33.42;33.67
7058;BME280;3570;43.080;25.628;2023-07-09T12:17:08;-20476.38;;;35.44;32.03
7058;BME280;3570;43.080;25.628;2023-07-09T12:19:53;-20431.38;;;33.86;32.43
7058;BME280;3570;43.080;25.628;2023-07-09T12:22:36;-20446.97;;;34.41;32.45
7058;BME280;3570;43.080;25.628;2023-07-09T12:25:25;-20474.66;;;35.38;32.80
7058;BME280;3570;43.080;25.628;2023-07-09T12:28:15;-20440.38;;;34.17;32.28
7058;BME280;3570;43.080;25.628;2023-07-09T12:30:59;-20443.81;;;34.30;32.26
7058;BME280;3570;43.080;25.628;2023-07-09T12:33:48;-20481.38;;;35.62;31.25
7058;BME280;3570;43.080;25.628;2023-07-09T12:36:35;-20513.47;;;36.75;30.69
7058;BME280;3570;43.080;25.628;2023-07-09T12:39:27;-20507.47;;;36.54;31.17
7058;BME280;3570;43.080;25.628;2023-07-09T12:42:18;-20528.00;;;37.26;29.89
7058;BME280;3570;43.080;25.628;2023-07-09T12:45:04;-20538.09;;;37.62;28.87
7058;BME280;3570;43.080;25.628;2023-07-09T12:47:49;-20555.59;;;38.24;29.12
7058;BME280;3570;43.080;25.628;2023-07-09T12:50:35;-20578.94;;;39.06;27.99
7058;BME280;3570;43.080;25.628;2023-07-09T12:53:20;-20544.94;;;37.86;29.67
7058;BME280;3570;43.080;25.628;2023-07-09T12:56:15;-20525.84;;;37.19;29.54
7058;BME280;3570;43.080;25.628;2023-07-09T12:59:02;-20543.38;;;37.81;28.93
7058;BME280;3570;43.080;25.628;2023-07-09T13:02:28;-20578.94;;;39.06;29.79
7058;BME280;3570;43.080;25.628;2023-07-09T13:05:21;-20569.53;;;38.73;28.45
7058;BME280;3570;43.080;25.628;2023-07-09T13:08:13;-20588.03;;;39.38;28.18
7058;BME280;3570;43.080;25.628;2023-07-09T13:10:59;-20587.16;;;39.35;27.26
7058;BME280;3570;43.080;25.628;2023-07-09T13:13:58;-20524.16;;;37.13;31.69
7058;BME280;3570;43.080;25.628;2023-07-09T13:16:43;-20430.94;;;33.84;33.92
7058;BME280;3570;43.080;25.628;2023-07-09T13:19:27;-20436.38;;;34.03;33.71
7058;BME280;3570;43.080;25.628;2023-07-09T13:22:16;-20490.38;;;35.93;31.06
7058;BME280;3570;43.080;25.628;2023-07-09T13:25:01;-20503.19;;;36.39;29.75
7058;BME280;3570;43.080;25.628;2023-07-09T13:27:44;-20521.16;;;37.02;28.23
7058;BME280;3570;43.080;25.628;2023-07-09T13:30:30;-20516.31;;;36.85;27.95
7058;BME280;3570;43.080;25.628;2023-07-09T13:33:16;-20500.19;;;36.28;30.24
7058;BME280;3570;43.080;25.628;2023-07-09T13:36:02;-20486.09;;;35.78;30.10
7058;BME280;3570;43.080;25.628;2023-07-09T13:38:46;-20516.19;;;36.85;30.13
7058;BME280;3570;43.080;25.628;2023-07-09T13:41:30;-20449.97;;;34.51;31.72
7058;BME280;3570;43.080;25.628;2023-07-09T13:44:20;-20466.81;;;35.11;31.90
7058;BME280;3570;43.080;25.628;2023-07-09T13:47:04;-20498.78;;;36.23;30.81
7058;BME280;3570;43.080;25.628;2023-07-09T13:49:49;-20536.81;;;37.57;29.99
7058;BME280;3570;43.080;25.628;2023-07-09T13:52:34;-20586.59;;;39.33;26.44
7058;BME280;3570;43.080;25.628;2023-07-09T13:55:20;-20545.09;;;37.87;28.36
7058;BME280;3570;43.080;25.628;2023-07-09T13:58:04;-20559.44;;;38.37;27.15
7058;BME280;3570;43.080;25.628;2023-07-09T14:00:50;-20514.75;;;36.79;29.41
7058;BME280;3570;43.080;25.628;2023-07-09T14:03:38;-20551.47;;;38.09;27.88
7058;BME280;3570;43.080;25.628;2023-07-09T14:06:22;-20542.53;;;37.78;27.19
7058;BME280;3570;43.080;25.628;2023-07-09T14:09:06;-20551.91;;;38.11;27.44
7058;BME280;3570;43.080;25.628;2023-07-09T14:11:53;-20479.53;;;35.55;29.92
7058;BME280;3570;43.080;25.628;2023-07-09T14:14:38;-20511.19;;;36.67;29.19
7058;BME280;3570;43.080;25.628;2023-07-09T14:17:22;-20525.16;;;37.16;28.32
7058;BME280;3570;43.080;25.628;2023-07-09T14:20:11;-20570.69;;;38.77;27.10
7058;BME280;3570;43.080;25.628;2023-07-09T14:22:55;-20568.97;;;38.71;27.70
7058;BME280;3570;43.080;25.628;2023-07-09T14:25:40;-20593.28;;;39.57;26.95
7058;BME280;3570;43.080;25.628;2023-07-09T14:28:24;-20609.59;;;40.15;26.39
7058;BME280;3570;43.080;25.628;2023-07-09T14:31:24;-20592.13;;;39.53;27.04
7058;BME280;3570;43.080;25.628;2023-07-09T14:37:07;-20453.97;;;34.65;32.04
7058;BME280;3570;43.080;25.628;2023-07-09T14:39:52;-20489.78;;;35.91;30.05
7058;BME280;3570;43.080;25.628;2023-07-09T14:42:40;-20463.53;;;34.99;30.57
7058;BME280;3570;43.080;25.628;2023-07-09T14:45:26;-20507.91;;;36.55;29.78
7058;BME280;3570;43.080;25.628;2023-07-09T14:48:13;-20510.19;;;36.63;29.96
7058;BME280;3570;43.080;25.628;2023-07-09T14:50:58;-20503.19;;;36.39;30.05
7058;BME280;3570;43.080;25.628;2023-07-09T14:53:42;-20470.38;;;35.23;31.83
7058;BME280;3570;43.080;25.628;2023-07-09T14:56:27;-20496.34;;;36.15;30.52
7058;BME280;3570;43.080;25.628;2023-07-09T14:59:11;-20463.81;;;35.00;32.15
7058;BME280;3570;43.080;25.628;2023-07-09T15:01:55;-20432.94;;;33.91;33.23
7058;BME280;3570;43.080;25.628;2023-07-09T15:04:40;-20451.81;;;34.58;33.64
7058;BME280;3570;43.080;25.628;2023-07-09T15:07:25;-20441.97;;;34.23;32.42